Glendora, CA (91741)

6:34 AM PST on December 28, 2014 (GMT -0800)
Myrtle Ave | Change Station
CLOSE
Current Station
Personal Weather Station
Location: Glendora, CA
Elevation: 833 ft
Nearby Weather Stations
Active Advisory: Frost Advisory

Elev 833 ft 34.13 °N, 117.85 °W | Updated 5 minutes ago

Partly Cloudy
Partly Cloudy
37.4 °F
Feels Like 37 °F
N
1.0
Wind Variable Wind from ENE
Gusts 1.0 mph

Today
High -- | Low -- °F
--% Chance of Precip.
Yesterday
High -- | Low -- °F
Precip. -- in
6:56 AM 4:50 PM
Waxing Crescent, 48% visible
Pressure 30.25 in
Visibility 10.0 miles
Clouds Scattered Clouds 23000 ft
Mostly Cloudy 25000 ft
Windchill 37 °F
Dew Point 27 °F
Humidity 67%
Rainfall 0.00 in
Snow Depth Not available.
UV 0 out of 12
Pollen 7.30 out of 12
Air Quality Not available.
Flu Activity Not available.
METAR KONT 281353Z 05003KT 10SM SCT230 BKN250 04/M03 A3024 RMK AO2 SLP244 T00391033

More Conditions Fewer Conditions

Pressure 30.25 in
Visibility 10.0 miles
Clouds Scattered Clouds 23000 ft
Mostly Cloudy 25000 ft
Windchill 37 °F
Dew Point 27 °F
Humidity 67%
Rainfall 0.00 in
Snow Depth Not available.
UV 0 out of 12
Pollen 7.30 out of 12
Air Quality Not available.
Flu Activity Not available.
METAR KONT 281353Z 05003KT 10SM SCT230 BKN250 04/M03 A3024 RMK AO2 SLP244 T00391033

More Conditions Fewer Conditions

10-Day Weather Forecast

Almanac

Astronomy

Dec. 28, 2014 Rise Set
Actual Time
Civil Twilight
Nautical Twilight
Astronomical Twilight
Moon
Length of Visible Light
Length of Day
Tomorrow will be .
, % of the Moon is Illuminated

Today's Extremes

State Highs State Lows

Community

WunderPhotos

Upload Photos

1,781,273 photos uploaded!

WunderBlogs® & News

Nearby

Air Quality

  Air Quality AQ Index Pollutant
Not available.

Snow Depth

Station Depth Elevation

Earthquake Activity

City Distance Mag. Time & Date
Minimum magnitude displayed is 2.5.

Coastal Water Temperatures

Place Temperature

Nearby Weather Stations